Time;durP1;ratioP1;P1;durP2;ratioP2;P2;SDS_P1;SDS_P2;PMS_P1;PMS_P2;Temp;Humidity;BMP_temperature;BMP_pressure;BME280_temperature;BME280_humidity;BME280_pressure;Samples;Min_cycle;Max_cycle;Signal;HPM_P1;HPM_P2
2023/06/01 00:05:08;;;;;;;3.20;2.30;;;;;;;20.25;42.82;99339.66;7328572;39;20312;31
2023/06/01 00:10:29;;;;;;;6.72;2.20;;;;;;;20.21;42.01;99337.59;7339734;39;20297;31
2023/06/01 00:16:05;;;;;;;3.05;2.20;;;;;;;20.16;42.74;99340.16;7378301;39;20235;31
2023/06/01 00:21:41;;;;;;;3.58;2.05;;;;;;;20.05;43.22;99329.97;7341923;39;20243;31
2023/06/01 00:32:21;;;;;;;4.03;2.30;;;;;;;20.05;42.35;99333.50;7422509;39;20298;31
2023/06/01 00:37:57;;;;;;;3.73;2.23;;;;;;;20.11;42.83;99332.63;7420584;39;20274;31
2023/06/01 00:43:31;;;;;;;3.40;2.17;;;;;;;20.16;42.96;99323.75;7400132;39;20254;31
2023/06/01 00:49:06;;;;;;;4.57;2.05;;;;;;;20.02;43.22;99328.50;7424249;39;20235;31
2023/06/01 00:54:41;;;;;;;5.97;2.37;;;;;;;20.07;43.42;99327.81;7433582;39;20361;31
2023/06/01 01:00:16;;;;;;;4.80;2.35;;;;;;;20.08;42.86;99326.78;7389504;39;20258;31
2023/06/01 01:05:52;;;;;;;4.20;2.15;;;;;;;19.93;43.67;99329.84;7380248;39;20346;31
2023/06/01 01:11:27;;;;;;;3.78;2.30;;;;;;;19.65;44.31;99326.72;7384862;39;20282;31
2023/06/01 01:17:02;;;;;;;5.20;2.40;;;;;;;19.40;45.19;99326.62;7359550;39;20239;31
2023/06/01 01:22:39;;;;;;;6.20;2.30;;;;;;;19.23;45.23;99328.22;7385787;39;20342;31
2023/06/01 01:28:22;;;;;;;3.57;2.23;;;;;;;19.09;46.51;99323.88;7436286;39;20238;31
2023/06/01 01:33:58;;;;;;;4.20;2.10;;;;;;;18.97;46.51;99325.63;7458807;39;20250;31
2023/06/01 01:39:30;;;;;;;3.27;2.27;;;;;;;18.92;46.28;99329.84;7281398;39;20249;31
2023/06/01 01:45:05;;;;;;;4.47;2.40;;;;;;;18.84;47.01;99321.06;7423842;39;20364;31
2023/06/01 01:50:39;;;;;;;3.10;2.20;;;;;;;18.68;47.60;99324.28;7399943;39;20235;31
2023/06/01 01:56:14;;;;;;;3.83;2.47;;;;;;;18.55;48.02;99324.31;7365118;39;20329;31
2023/06/01 02:07:48;;;;;;;3.93;2.33;;;;;;;18.45;48.20;99317.38;7336736;39;20306;31
2023/06/01 02:18:17;;;;;;;3.80;2.03;;;;;;;18.07;48.58;99316.41;7421352;39;20246;31
2023/06/01 02:23:47;;;;;;;5.43;2.33;;;;;;;18.03;48.72;99315.19;7419759;39;20264;31
2023/06/01 02:29:07;;;;;;;3.83;2.30;;;;;;;18.03;49.22;99310.53;7441377;39;20313;31
2023/06/01 02:34:43;;;;;;;7.00;2.45;;;;;;;17.77;49.97;99299.63;7463447;39;20344;31
2023/06/01 02:40:13;;;;;;;11.40;2.40;;;;;;;17.47;50.84;99312.81;7422885;39;20367;31
2023/06/01 02:45:33;;;;;;;5.70;2.50;;;;;;;17.37;51.15;99308.84;7424878;39;20238;31
2023/06/01 02:51:09;;;;;;;4.17;2.30;;;;;;;17.36;50.58;99310.72;7422000;39;20238;31
2023/06/01 02:56:45;;;;;;;4.50;2.35;;;;;;;17.37;50.93;99297.94;7446139;39;21335;31
2023/06/01 03:02:20;;;;;;;4.80;2.20;;;;;;;17.28;50.83;99296.44;7419825;39;20238;31
2023/06/01 03:07:55;;;;;;;6.00;2.70;;;;;;;17.40;50.29;99302.97;7406749;39;20238;31
2023/06/01 03:13:31;;;;;;;7.15;2.20;;;;;;;17.47;50.43;99299.19;7321558;39;20304;31
2023/06/01 03:18:52;;;;;;;4.03;2.80;;;;;;;17.38;50.44;99296.88;7360551;39;20354;31
2023/06/01 03:24:12;;;;;;;4.70;2.40;;;;;;;17.23;50.65;99298.94;7378638;39;20239;31
2023/06/01 03:29:49;;;;;;;5.40;2.50;;;;;;;17.15;52.14;99299.16;7415799;39;20262;31
2023/06/01 03:35:24;;;;;;;3.00;2.30;;;;;;;16.96;52.18;99304.34;7400069;39;20246;31
2023/06/01 03:40:44;;;;;;;4.60;2.55;;;;;;;17.03;51.06;99304.34;7357309;39;20248;31
2023/06/01 03:46:21;;;;;;;5.87;2.60;;;;;;;17.02;51.42;99303.53;7383453;39;20428;31
2023/06/01 03:51:56;;;;;;;5.57;2.90;;;;;;;17.13;50.90;99319.25;7377086;39;20257;31
2023/06/01 03:57:31;;;;;;;5.80;2.70;;;;;;;16.98;52.27;99304.94;7380064;39;20286;31
2023/06/01 04:03:07;;;;;;;4.23;2.20;;;;;;;16.91;52.66;99320.44;7390738;39;20359;31
2023/06/01 04:08:27;;;;;;;5.20;2.63;;;;;;;16.85;52.18;99325.88;7399176;39;20276;31
2023/06/01 04:14:03;;;;;;;7.37;2.60;;;;;;;16.84;52.20;99321.47;7399835;39;20281;31
2023/06/01 04:24:39;;;;;;;3.77;2.43;;;;;;;17.00;51.52;99319.22;7428539;39;20297;31
2023/06/01 04:30:15;;;;;;;5.40;2.70;;;;;;;16.96;52.23;99326.12;7425125;39;20250;31
2023/06/01 04:35:36;;;;;;;8.73;2.42;;;;;;;17.04;52.71;99323.22;7426408;39;21425;31
2023/06/01 04:41:09;;;;;;;10.47;2.20;;;;;;;17.12;52.39;99333.91;7379194;39;20256;31
2023/06/01 04:46:44;;;;;;;4.60;2.60;;;;;;;17.14;52.39;99341.88;7359617;39;20266;31
2023/06/01 04:52:05;;;;;;;3.77;2.50;;;;;;;17.11;52.45;99332.22;7354433;39;20240;31
2023/06/01 04:57:38;;;;;;;9.00;2.70;;;;;;;17.12;52.48;99336.63;7422667;39;20237;31
2023/06/01 05:03:13;;;;;;;5.70;2.90;;;;;;;17.29;52.03;99339.00;7425371;39;20242;31
2023/06/01 05:08:48;;;;;;;8.47;2.97;;;;;;;17.51;52.23;99335.03;7424968;39;20249;31
2023/06/01 05:14:24;;;;;;;5.47;3.17;;;;;;;17.69;52.97;99338.03;7401914;39;20235;31
2023/06/01 05:19:45;;;;;;;5.80;2.50;;;;;;;17.96;51.83;99344.31;7420508;39;20453;31
2023/06/01 05:25:19;;;;;;;3.73;2.80;;;;;;;18.10;50.98;99331.53;7390244;39;20255;31
2023/06/01 05:30:52;;;;;;;6.37;2.60;;;;;;;18.27;51.48;99332.75;7378815;39;20235;31
2023/06/01 05:36:13;;;;;;;3.40;2.20;;;;;;;18.47;51.22;99336.28;7379948;39;20337;31
2023/06/01 05:41:34;;;;;;;9.97;2.90;;;;;;;18.66;51.46;99338.13;7359117;39;20242;31
2023/06/01 05:47:09;;;;;;;3.83;2.50;;;;;;;18.91;51.29;99341.00;7363916;39;20250;31
2023/06/01 05:52:30;;;;;;;5.65;2.65;;;;;;;19.16;51.05;99341.94;7431712;39;21280;31
2023/06/01 05:57:50;;;;;;;5.00;2.50;;;;;;;19.30;50.58;99338.06;7401035;39;20254;31
2023/06/01 06:03:25;;;;;;;5.83;2.70;;;;;;;19.48;50.43;99344.72;7428259;39;20410;31
2023/06/01 06:08:46;;;;;;;4.65;2.50;;;;;;;19.67;49.61;99347.31;7421176;39;21380;31
2023/06/01 06:14:21;;;;;;;4.95;2.60;;;;;;;19.86;48.97;99347.38;7403749;39;20246;31
2023/06/01 06:19:57;;;;;;;4.63;2.40;;;;;;;19.99;48.83;99345.37;7428490;39;20238;31
2023/06/01 06:25:32;;;;;;;9.57;2.77;;;;;;;20.18;49.43;99343.53;7479328;38;20237;31
2023/06/01 06:30:53;;;;;;;6.47;2.62;;;;;;;20.47;47.71;99347.47;7420591;39;20313;31
2023/06/01 06:36:25;;;;;;;6.70;2.55;;;;;;;20.57;48.22;99342.31;7423057;39;20463;31
2023/06/01 06:42:02;;;;;;;4.00;2.40;;;;;;;20.82;47.93;99344.97;7339337;39;20264;31
2023/06/01 06:47:36;;;;;;;2.60;2.10;;;;;;;21.08;47.69;99342.75;7336283;39;20258;31
2023/06/01 06:53:11;;;;;;;4.30;2.40;;;;;;;21.30;46.32;99337.63;7325631;39;20244;31
2023/06/01 06:58:32;;;;;;;3.83;2.37;;;;;;;21.43;45.97;99342.91;7378828;39;20259;31
2023/06/01 07:04:08;;;;;;;8.45;2.55;;;;;;;21.54;45.76;99342.09;7426768;39;20337;31
2023/06/01 07:09:43;;;;;;;3.20;2.28;;;;;;;21.82;45.22;99340.63;7457129;39;20250;31
2023/06/01 07:15:18;;;;;;;3.95;2.20;;;;;;;22.05;44.18;99346.19;7464289;39;20254;31
2023/06/01 07:20:53;;;;;;;4.60;2.70;;;;;;;22.26;43.96;99353.84;7425978;39;20242;31
2023/06/01 07:26:30;;;;;;;3.53;2.37;;;;;;;22.38;43.78;99349.19;7379720;39;20243;31
2023/06/01 07:32:03;;;;;;;9.07;2.50;;;;;;;22.57;43.44;99344.41;7394699;39;20422;31
2023/06/01 07:37:38;;;;;;;5.30;2.78;;;;;;;22.85;42.81;99347.28;7401310;39;20238;31
2023/06/01 07:43:14;;;;;;;8.78;2.82;;;;;;;23.01;42.18;99348.41;7423616;39;20364;31
2023/06/01 07:48:49;;;;;;;5.18;2.70;;;;;;;23.11;42.47;99345.03;7424453;39;20238;31
2023/06/01 07:54:24;;;;;;;5.87;2.53;;;;;;;23.27;41.42;99352.50;7390743;39;20261;31
2023/06/01 08:00:01;;;;;;;4.05;2.35;;;;;;;23.47;41.25;99354.88;7380367;39;20341;31
2023/06/01 08:05:21;;;;;;;5.93;2.83;;;;;;;23.74;39.68;99342.97;7155184;39;20274;31
2023/06/01 08:10:54;;;;;;;10.97;2.97;;;;;;;23.86;41.07;99344.84;7385872;39;20317;31
2023/06/01 08:21:30;;;;;;;4.87;2.90;;;;;;;24.11;39.71;99334.25;7467068;39;20325;31
2023/06/01 08:27:05;;;;;;;5.57;3.03;;;;;;;24.24;39.53;99340.28;7409041;39;20320;31
2023/06/01 08:32:40;;;;;;;5.84;2.50;;;;;;;24.49;39.62;99331.56;7364122;39;20259;31
2023/06/01 08:38:16;;;;;;;4.93;2.40;;;;;;;24.68;38.69;99323.81;7340337;39;20306;31
2023/06/01 08:43:51;;;;;;;4.57;2.67;;;;;;;24.76;38.14;99334.41;7346742;39;20282;31
2023/06/01 08:49:26;;;;;;;8.02;2.62;;;;;;;24.87;37.90;99328.00;7381284;39;20329;31
2023/06/01 08:55:01;;;;;;;4.57;2.70;;;;;;;25.23;37.73;99328.44;7412056;39;20338;31
2023/06/01 09:00:36;;;;;;;6.47;2.80;;;;;;;25.39;37.92;99327.50;7391661;39;20247;31
2023/06/01 09:06:11;;;;;;;5.05;2.80;;;;;;;25.40;37.07;99323.66;7401064;39;21556;31
2023/06/01 09:11:47;;;;;;;7.35;2.50;;;;;;;25.63;34.73;99315.06;7400239;39;20328;31
2023/06/01 09:17:07;;;;;;;8.05;2.55;;;;;;;25.85;35.70;99318.59;7384872;39;20311;31
2023/06/01 09:22:53;;;;;;;4.50;2.60;;;;;;;26.05;35.52;99319.88;7366037;39;20269;31
2023/06/01 09:28:29;;;;;;;4.57;2.65;;;;;;;26.13;35.19;99314.69;7352315;39;20233;31
2023/06/01 09:34:04;;;;;;;5.15;2.72;;;;;;;26.25;34.74;99306.22;7319593;39;20326;31
2023/06/01 09:39:39;;;;;;;7.73;2.87;;;;;;;26.34;35.20;99304.62;7327540;39;20270;31
2023/06/01 09:45:28;;;;;;;3.80;2.70;;;;;;;26.38;33.56;99309.34;7402460;39;20243;31
2023/06/01 09:51:03;;;;;;;5.66;2.70;;;;;;;26.52;33.22;99304.19;7422054;39;20362;31
2023/06/01 09:56:38;;;;;;;4.18;2.78;;;;;;;26.76;34.31;99299.91;7409916;39;21291;31
2023/06/01 10:02:14;;;;;;;5.35;3.00;;;;;;;26.90;33.00;99292.78;7336114;39;20364;31
2023/06/01 10:12:53;;;;;;;4.75;2.78;;;;;;;27.12;30.77;99294.50;7377243;39;20252;31
2023/06/01 10:18:29;;;;;;;8.96;2.82;;;;;;;27.26;32.17;99295.66;7309106;39;20265;31
2023/06/01 10:24:05;;;;;;;3.10;2.72;;;;;;;27.35;31.92;99282.97;7387514;39;20243;31
2023/06/01 10:29:37;;;;;;;3.45;2.40;;;;;;;27.48;32.78;99274.16;7422110;39;20270;31
2023/06/01 10:35:14;;;;;;;7.35;2.70;;;;;;;27.62;32.12;99280.81;7432064;39;20336;31
2023/06/01 10:40:49;;;;;;;5.68;2.53;;;;;;;27.86;32.19;99277.53;7490668;38;20373;31
2023/06/01 10:46:00;;;;;;;5.35;2.30;;;;;;;28.05;30.71;99275.81;7484037;39;20254;31
2023/06/01 10:51:37;;;;;;;4.45;2.28;;;;;;;27.91;30.26;99272.78;7467632;39;21444;31
2023/06/01 10:57:35;;;;;;;5.85;2.30;;;;;;;28.06;31.36;99266.41;7473982;39;20238;31
2023/06/01 11:03:11;;;;;;;4.25;2.20;;;;;;;28.03;29.13;99264.22;7449498;39;20220;31
2023/06/01 11:09:08;;;;;;;6.40;2.50;;;;;;;28.23;28.25;99253.09;7444362;39;20236;31
2023/06/01 11:14:44;;;;;;;5.07;2.50;;;;;;;28.41;29.69;99251.69;7467890;39;20277;31
2023/06/01 11:20:20;;;;;;;5.45;2.42;;;;;;;28.49;28.88;99248.31;7445603;39;20357;31
2023/06/01 11:25:55;;;;;;;4.65;2.30;;;;;;;28.56;29.22;99244.16;7401470;39;20255;31
2023/06/01 11:31:31;;;;;;;4.75;2.17;;;;;;;28.63;29.18;99241.06;7398616;39;20325;31
2023/06/01 11:42:22;;;;;;;4.00;2.50;;;;;;;28.93;28.48;99229.03;7422802;39;20266;31
2023/06/01 11:47:56;;;;;;;4.45;1.90;;;;;;;28.62;27.59;99226.38;7399605;39;20244;31
2023/06/01 11:53:32;;;;;;;3.53;2.05;;;;;;;28.72;28.48;99231.06;7413775;39;20520;31
2023/06/01 11:59:12;;;;;;;4.30;2.26;;;;;;;28.74;27.98;99214.16;7398856;39;20258;31
2023/06/01 12:04:32;;;;;;;3.12;2.05;;;;;;;28.89;26.86;99217.66;7441189;39;20257;31
2023/06/01 12:10:06;;;;;;;4.56;2.20;;;;;;;28.84;27.33;99209.37;7421132;39;20421;31
2023/06/01 12:15:43;;;;;;;3.32;2.16;;;;;;;28.98;27.95;99202.06;7389829;39;20317;31
2023/06/01 12:21:23;;;;;;;3.63;1.87;;;;;;;29.24;28.47;99205.50;7361933;39;21083;31
2023/06/01 12:26:59;;;;;;;3.74;2.36;;;;;;;29.24;28.02;99193.56;7383507;39;20340;31
2023/06/01 12:32:36;;;;;;;5.20;2.37;;;;;;;29.16;27.25;99194.19;7396177;39;20306;31
2023/06/01 12:38:20;;;;;;;3.87;2.30;;;;;;;29.17;27.72;99188.34;7452923;39;20353;31
2023/06/01 12:43:58;;;;;;;3.57;2.30;;;;;;;29.41;27.60;99180.13;7497267;38;21379;31
2023/06/01 12:49:37;;;;;;;8.00;2.70;;;;;;;29.46;28.62;99186.50;7442462;39;20247;31
2023/06/01 12:54:57;;;;;;;4.40;2.75;;;;;;;29.31;27.32;99169.13;7469533;39;20242;31
2023/06/01 13:00:32;;;;;;;4.00;2.30;;;;;;;29.24;28.00;99163.84;7445165;39;20246;31
2023/06/01 13:06:08;;;;;;;3.05;2.10;;;;;;;29.38;28.46;99161.28;7422207;39;20243;31
2023/06/01 13:11:44;;;;;;;5.22;2.30;;;;;;;29.38;27.73;99151.00;7416662;39;20258;31
2023/06/01 13:17:19;;;;;;;5.10;2.65;;;;;;;29.45;27.42;99145.94;7443662;39;20261;31
2023/06/01 13:22:57;;;;;;;5.80;2.26;;;;;;;29.50;28.24;99145.91;7437709;39;20510;31
2023/06/01 13:28:19;;;;;;;2.87;2.20;;;;;;;29.52;28.59;99140.06;7469333;39;20250;31
2023/06/01 13:33:38;;;;;;;4.65;2.35;;;;;;;29.49;27.18;99135.91;7494620;39;21379;31
2023/06/01 13:39:11;;;;;;;4.27;2.10;;;;;;;29.52;27.56;99132.56;7442058;39;20266;31
2023/06/01 13:44:47;;;;;;;4.40;2.58;;;;;;;29.51;28.25;99121.72;7422109;39;20298;31
2023/06/01 13:50:24;;;;;;;4.62;2.00;;;;;;;29.69;27.63;99122.94;7378498;39;20247;31
2023/06/01 13:56:02;;;;;;;3.62;2.14;;;;;;;29.67;27.37;99116.84;7383398;39;20246;31
2023/06/01 14:01:38;;;;;;;3.05;1.92;;;;;;;29.54;26.74;99110.84;7424304;39;20345;31
2023/06/01 14:06:59;;;;;;;3.74;2.20;;;;;;;29.47;26.73;99110.38;7403601;39;20262;31
2023/06/01 14:12:35;;;;;;;3.30;2.03;;;;;;;29.61;27.95;99093.84;7484132;39;20254;31
2023/06/01 14:17:52;;;;;;;6.55;2.58;;;;;;;29.76;28.16;99095.63;7254900;39;20250;31
2023/06/01 14:28:33;;;;;;;8.05;2.30;;;;;;;29.29;27.75;99086.09;7442321;39;20282;31
2023/06/01 14:38:58;;;;;;;5.37;2.20;;;;;;;29.37;28.83;99079.91;7468143;39;20281;31
2023/06/01 14:49:36;;;;;;;8.20;2.50;;;;;;;29.54;27.79;99069.19;7441278;39;20269;31
2023/06/01 15:00:01;;;;;;;7.25;2.30;;;;;;;29.57;28.15;99053.06;7469277;39;20267;31
2023/06/01 15:05:37;;;;;;;6.53;2.30;;;;;;;29.69;28.05;99054.31;7443752;39;20495;31
2023/06/01 15:10:58;;;;;;;7.40;2.24;;;;;;;29.60;27.85;99044.12;7401597;39;20239;31
2023/06/01 15:16:34;;;;;;;3.67;2.15;;;;;;;29.58;27.72;99040.78;7403995;39;20238;31
2023/06/01 15:22:10;;;;;;;2.83;2.20;;;;;;;29.61;28.03;99045.78;7358029;39;20343;31
2023/06/01 15:27:30;;;;;;;6.10;2.53;;;;;;;29.66;27.58;99042.97;7395620;39;20238;31
2023/06/01 15:33:05;;;;;;;6.80;2.25;;;;;;;29.60;27.50;99030.22;7379819;39;20278;31
2023/06/01 15:38:42;;;;;;;3.05;2.30;;;;;;;29.44;28.54;99029.59;7359627;39;20247;31
2023/06/01 15:44:02;;;;;;;4.75;2.00;;;;;;;29.46;27.67;99036.50;7348959;39;20247;31
2023/06/01 15:49:22;;;;;;;6.85;2.30;;;;;;;29.56;28.33;99018.87;7357733;39;20258;31
2023/06/01 15:54:58;;;;;;;5.40;2.30;;;;;;;29.46;27.80;99019.81;7379585;39;20255;31
2023/06/01 16:00:33;;;;;;;4.43;2.30;;;;;;;29.44;27.77;99015.69;7385667;39;20275;31
2023/06/01 16:06:08;;;;;;;5.10;2.00;;;;;;;29.38;28.25;99020.47;7375504;39;20249;31
2023/06/01 16:11:44;;;;;;;3.25;2.10;;;;;;;29.56;27.36;99010.56;7410100;39;20287;31
2023/06/01 16:17:05;;;;;;;7.20;2.38;;;;;;;29.52;27.51;99007.53;7380424;39;20252;31
2023/06/01 16:22:40;;;;;;;5.00;2.25;;;;;;;29.37;28.10;99009.63;7426774;39;20323;31
2023/06/01 16:28:14;;;;;;;4.28;2.10;;;;;;;29.11;27.37;98990.44;7421939;39;20272;31
2023/06/01 16:33:49;;;;;;;3.15;2.00;;;;;;;29.11;27.79;98989.59;7424312;39;20321;31
2023/06/01 16:39:24;;;;;;;4.70;2.20;;;;;;;29.10;28.57;98985.16;7345547;39;20255;31
2023/06/01 16:45:00;;;;;;;4.28;2.48;;;;;;;28.96;28.79;98984.22;7382947;39;20271;31
2023/06/01 16:50:35;;;;;;;5.75;2.47;;;;;;;28.80;27.72;98985.44;7317735;39;20248;31
2023/06/01 16:55:55;;;;;;;5.53;2.15;;;;;;;28.66;29.11;98988.03;7383340;39;20239;31
2023/06/01 17:01:33;;;;;;;6.25;2.22;;;;;;;28.48;28.75;98983.19;7450289;39;20297;31
2023/06/01 17:06:52;;;;;;;6.52;2.44;;;;;;;28.24;29.28;98977.53;7438675;39;20239;31
2023/06/01 17:12:28;;;;;;;3.44;1.94;;;;;;;28.08;29.94;98973.97;7432084;39;20337;31
2023/06/01 17:18:04;;;;;;;3.47;2.33;;;;;;;27.94;30.35;98970.19;7446336;39;20318;31
2023/06/01 17:23:24;;;;;;;2.50;2.30;;;;;;;27.88;30.37;98974.09;7463109;38;20250;31
2023/06/01 17:34:00;;;;;;;8.10;2.33;;;;;;;27.66;31.63;98968.91;7464307;39;20294;31
2023/06/01 17:39:35;;;;;;;4.82;2.72;;;;;;;27.66;31.62;98965.31;7465109;39;20253;31
2023/06/01 17:45:10;;;;;;;3.10;2.30;;;;;;;27.56;31.28;98960.66;7476542;38;20241;31
2023/06/01 17:50:46;;;;;;;5.40;2.30;;;;;;;27.44;32.40;98971.19;7464433;39;20306;31
2023/06/01 17:56:06;;;;;;;4.20;2.30;;;;;;;27.43;31.21;98965.91;7421761;39;20333;31
2023/06/01 18:01:42;;;;;;;4.80;2.50;;;;;;;27.27;32.81;98957.69;7441962;39;20242;31
2023/06/01 18:07:16;;;;;;;3.90;2.30;;;;;;;27.16;32.42;98955.22;7436343;39;20421;31
2023/06/01 18:12:34;;;;;;;4.50;2.20;;;;;;;27.15;32.82;98956.31;7443727;39;20279;31
2023/06/01 18:18:08;;;;;;;4.22;2.47;;;;;;;27.04;32.61;98957.44;7420012;39;20349;31
2023/06/01 18:23:46;;;;;;;4.18;2.33;;;;;;;27.02;33.38;98965.22;7422745;39;20341;31
2023/06/01 18:29:19;;;;;;;4.93;2.40;;;;;;;26.95;33.55;98967.41;7445932;39;20255;31
2023/06/01 18:34:40;;;;;;;7.78;2.60;;;;;;;26.90;34.45;98966.31;7456244;39;20264;31
2023/06/01 18:40:17;;;;;;;7.73;2.47;;;;;;;26.68;34.80;98965.75;7465178;39;20339;31
2023/06/01 18:45:37;;;;;;;6.05;2.42;;;;;;;26.60;34.65;98965.47;7391487;39;20243;31
2023/06/01 18:51:12;;;;;;;4.95;2.80;;;;;;;26.42;37.54;98964.06;7383084;39;20243;31
2023/06/01 18:56:48;;;;;;;3.33;2.75;;;;;;;26.15;37.72;98969.00;7357913;39;20267;31
2023/06/01 19:02:23;;;;;;;5.42;2.76;;;;;;;25.92;38.83;98970.31;7359475;39;20306;31
2023/06/01 19:07:44;;;;;;;4.85;2.92;;;;;;;25.78;38.30;98981.03;7377558;39;20253;31
2023/06/01 19:13:20;;;;;;;4.70;3.12;;;;;;;25.73;38.70;98974.66;7424144;39;20250;31
2023/06/01 19:18:55;;;;;;;6.55;3.50;;;;;;;25.59;39.95;98988.13;7458146;39;20285;31
2023/06/01 19:24:32;;;;;;;6.10;3.60;;;;;;;25.42;39.88;98985.53;7402509;39;20249;31
2023/06/01 19:30:06;;;;;;;7.40;4.25;;;;;;;25.31;40.50;98994.87;7396613;39;20274;31
2023/06/01 19:40:45;;;;;;;6.10;5.10;;;;;;;25.20;40.18;99006.09;7394950;39;20278;31
2023/06/01 19:51:24;;;;;;;9.50;5.30;;;;;;;24.92;39.81;99030.19;7435297;39;20254;31
2023/06/01 19:57:00;;;;;;;8.17;5.83;;;;;;;24.83;40.03;99033.66;7443029;39;20244;31
2023/06/01 20:02:38;;;;;;;6.50;5.75;;;;;;;24.63;39.58;99039.81;7403000;39;20506;31
2023/06/01 20:08:15;;;;;;;7.70;6.50;;;;;;;24.35;38.14;99042.84;7423793;39;20367;31
2023/06/01 20:13:35;;;;;;;9.42;6.86;;;;;;;24.28;38.41;99044.97;7371390;39;20454;31
2023/06/01 20:18:56;;;;;;;9.63;6.37;;;;;;;24.09;38.50;99056.28;7374661;39;20373;31
2023/06/01 20:24:33;;;;;;;10.50;7.85;;;;;;;23.79;39.73;99045.75;7353910;39;20348;31
2023/06/01 20:29:53;;;;;;;9.80;7.10;;;;;;;23.63;39.06;99048.56;7368649;39;20258;31
2023/06/01 20:35:29;;;;;;;9.88;7.30;;;;;;;23.57;39.04;99060.56;7472048;38;20268;31
2023/06/01 20:41:22;;;;;;;10.60;7.15;;;;;;;23.43;38.63;99059.25;7443646;39;20841;31
2023/06/01 20:46:37;;;;;;;8.20;6.85;;;;;;;23.40;38.70;99065.25;7433636;39;20254;31
2023/06/01 20:52:13;;;;;;;8.90;6.83;;;;;;;23.31;38.60;99059.34;7422742;39;20254;31
2023/06/01 20:57:47;;;;;;;12.65;6.82;;;;;;;23.11;38.62;99059.88;7434334;39;20344;31
2023/06/01 21:03:22;;;;;;;9.43;6.90;;;;;;;22.96;38.92;99065.13;7469313;39;20314;31
2023/06/01 21:08:39;;;;;;;12.13;6.55;;;;;;;22.84;38.67;99069.88;7193249;39;20274;31
2023/06/01 21:14:13;;;;;;;7.80;6.40;;;;;;;22.66;38.83;99072.81;7367702;39;20304;31
2023/06/01 21:19:48;;;;;;;11.60;6.56;;;;;;;22.51;39.18;99075.31;7359750;39;20294;31
2023/06/01 21:25:07;;;;;;;9.00;5.95;;;;;;;22.48;39.06;99076.63;7361349;39;20393;31
2023/06/01 21:30:43;;;;;;;12.32;5.90;;;;;;;22.42;39.53;99072.13;7382578;39;20271;31
2023/06/01 21:36:18;;;;;;;7.74;5.86;;;;;;;22.36;39.82;99073.94;7365528;39;20243;31
2023/06/01 21:41:38;;;;;;;8.45;5.82;;;;;;;22.29;39.43;99075.16;7362642;39;20711;31
2023/06/01 21:47:15;;;;;;;9.05;5.85;;;;;;;22.31;38.87;99079.31;7351981;39;20275;31
2023/06/01 21:52:49;;;;;;;8.93;6.03;;;;;;;22.26;38.92;99078.37;7379792;39;20258;31
2023/06/01 21:58:24;;;;;;;9.96;5.60;;;;;;;22.17;39.49;99069.69;7389797;39;20243;31
2023/06/01 22:04:00;;;;;;;10.80;5.93;;;;;;;22.07;38.70;99087.91;7395565;39;20261;31
2023/06/01 22:14:39;;;;;;;7.70;5.47;;;;;;;21.93;39.06;99090.09;7420451;39;20464;31
2023/06/01 22:20:15;;;;;;;7.60;5.26;;;;;;;21.81;39.62;99087.31;7437370;39;20246;31
2023/06/01 22:30:54;;;;;;;6.60;4.82;;;;;;;21.79;39.42;99094.97;7401065;39;20290;31
2023/06/01 22:36:30;;;;;;;7.40;5.30;;;;;;;21.61;39.66;99103.34;7385938;39;20349;31
2023/06/01 22:47:09;;;;;;;8.07;4.93;;;;;;;21.49;40.61;99102.53;7443757;39;20291;31
2023/06/01 22:52:45;;;;;;;6.25;4.45;;;;;;;21.29;40.72;99104.78;7442829;39;20308;31
2023/06/01 22:58:05;;;;;;;5.68;4.93;;;;;;;21.28;40.16;99106.69;7461946;39;20234;31
2023/06/01 23:03:41;;;;;;;7.00;4.82;;;;;;;21.04;39.87;99110.44;7464007;39;20257;31
2023/06/01 23:09:18;;;;;;;7.63;5.17;;;;;;;20.99;39.94;99113.91;7420990;39;20365;31
2023/06/01 23:14:35;;;;;;;6.70;5.40;;;;;;;21.04;40.32;99121.41;7392632;39;20412;31
2023/06/01 23:20:11;;;;;;;6.90;5.10;;;;;;;20.92;40.49;99115.09;7380049;39;20351;31
2023/06/01 23:25:48;;;;;;;5.80;5.17;;;;;;;20.81;41.67;99124.09;7312481;39;21441;31
2023/06/01 23:31:24;;;;;;;11.20;5.35;;;;;;;20.69;41.30;99121.34;7365101;39;20275;31
2023/06/01 23:36:45;;;;;;;10.55;5.30;;;;;;;20.71;41.00;99123.84;7377445;39;20267;31
2023/06/01 23:42:20;;;;;;;7.25;5.00;;;;;;;20.52;41.10;99114.84;7352733;39;20346;31
2023/06/01 23:47:55;;;;;;;7.83;5.20;;;;;;;20.51;41.71;99124.97;7353106;39;20247;31
2023/06/01 23:53:30;;;;;;;8.20;5.40;;;;;;;20.49;42.47;99127.09;7318852;39;20267;31
2023/06/01 23:59:02;;;;;;;9.15;5.75;;;;;;;20.45;42.29;99127.78;7316257;39;20236;31
